createdAt,value
2017-12-26T00:02:27.238Z,94101.45
2017-12-26T00:04:54.899Z,94099.02
2017-12-26T00:07:22.667Z,94097.05
2017-12-26T00:09:50.350Z,94099.29
2017-12-26T00:12:18.045Z,94102.31
2017-12-26T00:14:45.809Z,94099.05
2017-12-26T00:17:13.586Z,94095.44
2017-12-26T00:19:41.261Z,94096.81
2017-12-26T00:22:09.062Z,94091.16
2017-12-26T00:24:36.884Z,94097.12
2017-12-26T00:27:04.642Z,94093.17
2017-12-26T00:29:32.324Z,94094.63
2017-12-26T00:32:00.073Z,94093.17
2017-12-26T00:34:27.842Z,94096.64
2017-12-26T00:36:55.521Z,94092.97
2017-12-26T00:39:23.272Z,94089.64
2017-12-26T00:41:51.724Z,94086.67
2017-12-26T00:44:19.461Z,94093.58
2017-12-26T00:46:48.210Z,94093.05
2017-12-26T00:49:16.011Z,94091.03
2017-12-26T00:51:43.682Z,94089.64
2017-12-26T00:54:11.518Z,94088.10
2017-12-26T00:56:39.229Z,94080.16
2017-12-26T00:59:07.651Z,94086.16
2017-12-26T01:01:35.380Z,94082.81
2017-12-26T01:04:03.125Z,94082.61
2017-12-26T01:06:31.919Z,94087.09
2017-12-26T01:08:59.597Z,94080.48
2017-12-26T01:11:28.101Z,94073.33
2017-12-26T01:13:56.547Z,94075.55
2017-12-26T01:16:25.450Z,94070.86
2017-12-26T01:18:57.180Z,94074.41
2017-12-26T01:21:24.921Z,94067.92
2017-12-26T01:23:53.408Z,94066.73
2017-12-26T01:26:21.160Z,94066.06
2017-12-26T01:28:48.879Z,94064.33
2017-12-26T01:31:16.608Z,94056.27
2017-12-26T01:33:44.283Z,94052.58
2017-12-26T01:36:15.371Z,94044.62
2017-12-26T01:38:44.359Z,94039.56
2017-12-26T01:41:14.697Z,94039.28
2017-12-26T01:43:43.133Z,94043.42
2017-12-26T01:46:23.804Z,94029.89
2017-12-26T01:48:51.567Z,94021.95
2017-12-26T01:51:19.492Z,94028.83
2017-12-26T01:53:48.455Z,94019.48
2017-12-26T01:56:17.444Z,94020.93
2017-12-26T01:58:46.760Z,94008.46
2017-12-26T02:01:17.288Z,94006.59
2017-12-26T02:03:45.792Z,94006.45
2017-12-26T02:08:48.325Z,94006.95
2017-12-26T02:11:19.179Z,94009.94
2017-12-26T02:13:49.541Z,94009.25
2017-12-26T02:16:18.395Z,94007.28
2017-12-26T02:18:47.929Z,94004.53
2017-12-26T02:21:15.637Z,93992.86
2017-12-26T02:23:45.763Z,93996.59
2017-12-26T02:26:14.317Z,93991.19
2017-12-26T02:28:45.714Z,93990.52
2017-12-26T02:31:14.672Z,93988.78
2017-12-26T02:33:43.697Z,93977.10
2017-12-26T02:36:11.411Z,93971.09
2017-12-26T02:38:39.789Z,93976.25
2017-12-26T02:41:13.955Z,93968.12
2017-12-26T02:43:41.622Z,93967.30
2017-12-26T02:46:11.615Z,93957.52
2017-12-26T02:48:48.618Z,93958.16
2017-12-26T02:51:17.026Z,93952.95
2017-12-26T02:53:45.669Z,93952.69
2017-12-26T02:56:14.300Z,93945.03
2017-12-26T02:58:43.086Z,93941.44
2017-12-26T03:03:56.828Z,93938.16
2017-12-26T03:06:26.446Z,93939.56
2017-12-26T03:09:06.738Z,93937.49
2017-12-26T03:11:38.601Z,93931.81
2017-12-26T03:14:13.248Z,93927.96
2017-12-26T03:16:50.762Z,93926.77
2017-12-26T03:19:26.280Z,93917.01
2017-12-26T03:22:04.027Z,93908.94
2017-12-26T03:24:31.752Z,93908.81
2017-12-26T03:27:01.246Z,93906.95
2017-12-26T03:29:33.272Z,93901.67
2017-12-26T03:32:02.085Z,93906.70
2017-12-26T03:35:50.253Z,93896.89
2017-12-26T03:38:17.966Z,93892.53
2017-12-26T03:40:45.800Z,93890.53
2017-12-26T03:43:13.507Z,93894.95
2017-12-26T03:45:46.091Z,93880.95
2017-12-26T03:48:13.815Z,93886.42
2017-12-26T03:50:42.439Z,93882.75
2017-12-26T03:53:10.254Z,93883.86
2017-12-26T03:55:39.604Z,93881.59
2017-12-26T03:58:09.625Z,93878.59
2017-12-26T04:00:39.657Z,93879.59
2017-12-26T04:03:08.238Z,93886.19
2017-12-26T04:05:39.009Z,93876.80
2017-12-26T04:08:09.023Z,93872.81
2017-12-26T04:10:37.348Z,93868.62
2017-12-26T04:13:05.027Z,93867.68
2017-12-26T04:15:33.537Z,93869.19
2017-12-26T04:18:01.246Z,93860.38
2017-12-26T04:20:28.997Z,93859.75
2017-12-26T04:22:56.725Z,93860.00
2017-12-26T04:25:25.491Z,93859.37
2017-12-26T04:27:53.277Z,93848.75
2017-12-26T04:30:23.966Z,93844.28
2017-12-26T04:32:51.942Z,93840.38
2017-12-26T04:35:21.043Z,93836.77
2017-12-26T04:37:48.770Z,93833.57
2017-12-26T04:40:17.385Z,93843.44
2017-12-26T04:42:47.325Z,93836.57
2017-12-26T04:45:15.210Z,93836.50
2017-12-26T04:47:43.878Z,93843.44
2017-12-26T04:50:13.703Z,93852.27
2017-12-26T04:52:42.042Z,93839.67
2017-12-26T04:55:09.749Z,93842.00
2017-12-26T04:57:38.320Z,93844.17
2017-12-26T05:00:06.205Z,93840.17
2017-12-26T05:02:33.895Z,93844.71
2017-12-26T05:05:01.607Z,93838.66
2017-12-26T05:07:29.379Z,93834.33
2017-12-26T05:09:59.973Z,93828.05
2017-12-26T05:12:27.647Z,93833.13
2017-12-26T05:14:55.400Z,93829.26
2017-12-26T05:17:23.812Z,93832.94
2017-12-26T05:19:53.101Z,93827.54
2017-12-26T05:22:20.809Z,93830.67
2017-12-26T05:24:48.560Z,93835.45
2017-12-26T05:27:16.404Z,93837.26
2017-12-26T05:29:44.979Z,93848.34
2017-12-26T05:32:12.829Z,93851.07
2017-12-26T05:34:40.567Z,93856.67
2017-12-26T05:37:08.289Z,93858.47
2017-12-26T05:39:35.979Z,93854.07
2017-12-26T05:42:03.726Z,93846.67
2017-12-26T05:44:31.419Z,93847.81
2017-12-26T05:47:00.316Z,93837.86
2017-12-26T05:49:28.005Z,93840.70
2017-12-26T05:51:55.689Z,93835.84
2017-12-26T05:54:23.465Z,93832.07
2017-12-26T05:56:51.221Z,93833.53
2017-12-26T05:59:19.809Z,93834.13
2017-12-26T06:01:47.655Z,93828.91
2017-12-26T06:04:15.343Z,93826.03
2017-12-26T06:06:43.069Z,93830.77
2017-12-26T06:09:11.447Z,93830.11
2017-12-26T06:11:39.134Z,93824.03
2017-12-26T06:14:10.647Z,93825.77
2017-12-26T06:16:39.514Z,93816.22
2017-12-26T06:19:07.201Z,93814.58
2017-12-26T06:21:34.940Z,93808.30
2017-12-26T06:24:02.701Z,93807.16
2017-12-26T06:26:33.209Z,93806.45
2017-12-26T06:29:01.971Z,93808.52
2017-12-26T06:31:29.720Z,93808.50
2017-12-26T06:33:57.538Z,93811.56
2017-12-26T06:36:25.298Z,93806.72
2017-12-26T06:38:53.007Z,93804.09
2017-12-26T06:41:20.768Z,93805.89
2017-12-26T06:43:48.500Z,93806.16
2017-12-26T06:46:16.267Z,93804.16
2017-12-26T06:48:44.965Z,93802.75
2017-12-26T06:51:12.780Z,93804.86
2017-12-26T06:53:40.519Z,93803.53
2017-12-26T06:56:09.185Z,93809.00
2017-12-26T06:58:37.811Z,93807.73
2017-12-26T07:01:05.554Z,93805.33
2017-12-26T07:03:33.259Z,93800.33
2017-12-26T07:06:01.045Z,93802.93
2017-12-26T07:08:28.821Z,93803.56
2017-12-26T07:10:56.555Z,93805.70
2017-12-26T07:13:24.516Z,93795.21
2017-12-26T07:15:52.281Z,93803.92
2017-12-26T07:18:20.037Z,93809.95
2017-12-26T07:20:53.355Z,93803.62
2017-12-26T07:23:21.169Z,93807.24
2017-12-26T07:25:48.871Z,93803.89
2017-12-26T07:28:17.369Z,93805.67
2017-12-26T07:30:46.345Z,93805.35
2017-12-26T07:33:14.102Z,93798.14
2017-12-26T07:35:41.884Z,93795.77
2017-12-26T07:38:09.653Z,93788.48
2017-12-26T07:40:38.006Z,93785.19
2017-12-26T07:43:05.997Z,93782.88
2017-12-26T07:45:33.725Z,93786.97
2017-12-26T07:48:02.528Z,93778.75
2017-12-26T07:50:30.303Z,93777.16
2017-12-26T07:52:58.064Z,93778.40
2017-12-26T07:55:25.822Z,93776.83
2017-12-26T07:57:53.550Z,93787.34
2017-12-26T08:00:21.324Z,93787.81
2017-12-26T08:02:49.129Z,93781.72
2017-12-26T08:05:16.987Z,93781.73
2017-12-26T08:07:44.688Z,93781.64
2017-12-26T08:10:12.566Z,93780.01
2017-12-26T08:12:40.270Z,93781.55
2017-12-26T08:15:08.048Z,93776.11
2017-12-26T08:17:35.838Z,93781.27
2017-12-26T08:20:05.057Z,93785.29
2017-12-26T08:22:33.029Z,93786.02
2017-12-26T08:25:00.831Z,93788.94
2017-12-26T08:27:29.325Z,93783.20
2017-12-26T08:29:57.036Z,93777.33
2017-12-26T08:32:24.844Z,93774.39
2017-12-26T08:34:52.580Z,93780.33
2017-12-26T08:37:20.354Z,93773.04
2017-12-26T08:39:48.079Z,93764.91
2017-12-26T08:42:15.843Z,93762.55
2017-12-26T08:44:43.674Z,93761.34
2017-12-26T08:47:11.956Z,93757.23
2017-12-26T08:49:39.699Z,93760.55
2017-12-26T08:52:07.426Z,93758.78
2017-12-26T08:54:35.226Z,93753.84
2017-12-26T08:57:03.032Z,93746.25
2017-12-26T08:59:30.799Z,93744.67
2017-12-26T09:01:58.561Z,93741.73
2017-12-26T09:04:26.393Z,93745.33
2017-12-26T09:06:54.232Z,93744.35
2017-12-26T09:09:22.008Z,93750.97
2017-12-26T09:11:49.750Z,93752.71
2017-12-26T09:14:17.499Z,93747.00
2017-12-26T09:16:45.437Z,93742.00
2017-12-26T09:19:13.184Z,93742.33
2017-12-26T09:21:40.966Z,93742.16
2017-12-26T09:24:08.689Z,93739.91
2017-12-26T09:26:36.528Z,93737.80
2017-12-26T09:29:04.228Z,93736.27
2017-12-26T09:31:32.163Z,93718.11
2017-12-26T09:34:00.864Z,93726.28
2017-12-26T09:36:28.833Z,93724.75
2017-12-26T09:38:56.777Z,93726.69
2017-12-26T09:41:24.592Z,93724.08
2017-12-26T09:43:52.578Z,93727.19
2017-12-26T09:46:20.784Z,93723.21
2017-12-26T09:48:48.794Z,93726.16
2017-12-26T09:51:16.918Z,93721.70
2017-12-26T09:53:44.991Z,93717.05
2017-12-26T09:56:14.008Z,93706.64
2017-12-26T09:58:41.836Z,93706.56
2017-12-26T10:01:09.572Z,93709.05
2017-12-26T10:03:37.372Z,93700.27
2017-12-26T10:06:06.140Z,93700.70
2017-12-26T10:08:33.907Z,93701.05
2017-12-26T10:11:01.717Z,93690.46
2017-12-26T10:13:29.483Z,93691.50
2017-12-26T10:15:57.196Z,93685.30
2017-12-26T10:18:24.965Z,93682.97
2017-12-26T10:20:53.732Z,93684.27
2017-12-26T10:23:21.537Z,93673.66
2017-12-26T10:25:49.482Z,93670.15
2017-12-26T10:28:17.378Z,93659.77
2017-12-26T10:30:45.176Z,93659.18
2017-12-26T10:33:13.010Z,93652.52
2017-12-26T10:35:40.798Z,93654.91
2017-12-26T10:38:08.662Z,93643.21
2017-12-26T10:40:36.468Z,93637.50
2017-12-26T10:43:04.246Z,93636.64
2017-12-26T10:45:32.026Z,93633.50
2017-12-26T10:47:59.790Z,93622.90
2017-12-26T10:50:27.578Z,93612.61
2017-12-26T10:52:55.655Z,93610.21
2017-12-26T10:55:23.427Z,93610.44
2017-12-26T10:57:51.137Z,93600.88
2017-12-26T11:00:19.034Z,93597.70
2017-12-26T11:02:46.762Z,93593.91
2017-12-26T11:05:14.467Z,93591.19
2017-12-26T11:07:42.408Z,93579.58
2017-12-26T11:10:10.525Z,93579.80
2017-12-26T11:12:38.346Z,93576.86
2017-12-26T11:15:06.125Z,93570.66
2017-12-26T11:17:36.249Z,93567.70
2017-12-26T11:20:04.046Z,93565.86
2017-12-26T11:22:31.776Z,93564.03
2017-12-26T11:24:59.551Z,93559.63
2017-12-26T11:27:27.288Z,93555.74
2017-12-26T11:29:55.052Z,93552.84
2017-12-26T11:32:22.802Z,93553.40
2017-12-26T11:34:50.557Z,93549.22
2017-12-26T11:37:18.477Z,93534.33
2017-12-26T11:39:46.223Z,93539.70
2017-12-26T11:42:14.033Z,93538.34
2017-12-26T11:44:41.795Z,93527.47
2017-12-26T11:47:09.571Z,93531.90
2017-12-26T11:49:37.322Z,93524.72
2017-12-26T11:52:05.056Z,93524.05
2017-12-26T11:54:32.858Z,93519.68
2017-12-26T11:57:00.597Z,93522.95
2017-12-26T11:59:28.414Z,93513.20
2017-12-26T12:01:56.149Z,93510.20
2017-12-26T12:04:23.858Z,93513.55
2017-12-26T12:06:51.626Z,93504.40
2017-12-26T12:09:19.641Z,93504.68
2017-12-26T12:11:47.344Z,93504.03
2017-12-26T12:14:15.128Z,93499.81
2017-12-26T12:16:42.926Z,93489.88
2017-12-26T12:19:10.632Z,93482.53
2017-12-26T12:21:38.399Z,93490.28
2017-12-26T12:24:07.340Z,93482.45
2017-12-26T12:26:35.050Z,93483.64
2017-12-26T12:29:02.859Z,93476.73
2017-12-26T12:31:30.564Z,93478.51
2017-12-26T12:33:58.322Z,93475.40
2017-12-26T12:36:26.100Z,93476.13
2017-12-26T12:38:53.998Z,93470.94
2017-12-26T12:41:21.824Z,93477.04
2017-12-26T12:43:49.677Z,93465.52
2017-12-26T12:46:18.280Z,93466.20
2017-12-26T12:48:46.040Z,93463.80
2017-12-26T12:51:14.185Z,93467.89
2017-12-26T12:53:41.979Z,93467.02
2017-12-26T12:56:09.771Z,93470.64
2017-12-26T12:58:37.570Z,93460.34
2017-12-26T13:01:05.388Z,93459.46
2017-12-26T13:03:33.147Z,93466.42
2017-12-26T13:06:00.914Z,93467.14
2017-12-26T13:08:28.754Z,93468.77
2017-12-26T13:10:56.626Z,93466.06
2017-12-26T13:13:24.376Z,93471.09
2017-12-26T13:15:52.155Z,93464.33
2017-12-26T13:18:21.476Z,93465.15
2017-12-26T13:20:49.426Z,93463.18
2017-12-26T13:23:17.255Z,93467.83
2017-12-26T13:25:45.070Z,93459.89
2017-12-26T13:28:12.770Z,93455.58
2017-12-26T13:30:40.600Z,93454.21
2017-12-26T13:33:08.483Z,93453.91
2017-12-26T13:35:36.260Z,93453.78
2017-12-26T13:38:04.115Z,93453.56
2017-12-26T13:40:31.950Z,93450.78
2017-12-26T13:43:00.340Z,93446.42
2017-12-26T13:45:28.118Z,93444.50
2017-12-26T13:47:55.983Z,93447.33
2017-12-26T13:50:23.776Z,93452.37
2017-12-26T13:52:51.517Z,93445.99
2017-12-26T13:55:19.374Z,93442.30
2017-12-26T13:57:47.155Z,93440.83
2017-12-26T14:00:14.928Z,93443.72
2017-12-26T14:02:42.790Z,93440.89
2017-12-26T14:05:10.576Z,93439.54
2017-12-26T14:07:38.424Z,93433.67
2017-12-26T14:10:06.148Z,93432.88
2017-12-26T14:12:34.006Z,93435.41
2017-12-26T14:15:01.816Z,93444.48
2017-12-26T14:17:29.513Z,93440.02
2017-12-26T14:19:57.280Z,93446.46
2017-12-26T14:22:25.076Z,93438.75
2017-12-26T14:24:52.796Z,93441.72
2017-12-26T14:27:20.535Z,93442.28
2017-12-26T14:29:48.344Z,93443.03
2017-12-26T14:32:17.217Z,93441.61
2017-12-26T14:34:44.955Z,93437.59
2017-12-26T14:37:12.754Z,93438.38
2017-12-26T14:39:40.491Z,93437.52
2017-12-26T14:42:08.283Z,93434.14
2017-12-26T14:44:36.477Z,93437.25
2017-12-26T14:47:04.200Z,93441.23
2017-12-26T14:49:31.938Z,93444.94
2017-12-26T14:51:59.880Z,93440.58
2017-12-26T14:54:27.765Z,93443.75
2017-12-26T14:56:55.534Z,93444.59
2017-12-26T14:59:23.420Z,93443.75
2017-12-26T15:01:51.243Z,93446.13
2017-12-26T15:04:19.029Z,93452.31
2017-12-26T15:06:46.802Z,93448.99
2017-12-26T15:09:14.668Z,93448.81
2017-12-26T15:11:42.528Z,93449.03
2017-12-26T15:14:11.300Z,93447.36
2017-12-26T15:16:39.198Z,93441.31
2017-12-26T15:19:06.976Z,93437.34
2017-12-26T15:21:34.731Z,93433.20
2017-12-26T15:24:02.580Z,93439.47
2017-12-26T15:26:30.372Z,93444.45
2017-12-26T15:28:58.121Z,93442.50
2017-12-26T15:31:26.375Z,93438.54
2017-12-26T15:33:54.168Z,93434.07
2017-12-26T15:36:21.965Z,93435.11
2017-12-26T15:38:49.809Z,93441.98
2017-12-26T15:41:17.527Z,93433.96
2017-12-26T15:43:45.539Z,93437.08
2017-12-26T15:46:13.348Z,93435.78
2017-12-26T15:48:42.029Z,93435.32
2017-12-26T15:51:09.821Z,93440.88
2017-12-26T15:53:37.629Z,93432.30
2017-12-26T15:56:05.399Z,93438.37
2017-12-26T15:58:33.843Z,93440.63
2017-12-26T16:01:01.858Z,93440.45
2017-12-26T16:03:29.755Z,93441.18
2017-12-26T16:05:58.178Z,93444.78
2017-12-26T16:08:26.088Z,93445.09
2017-12-26T16:10:53.864Z,93438.98
2017-12-26T16:13:21.872Z,93441.88
2017-12-26T16:15:50.951Z,93442.91
2017-12-26T16:18:18.865Z,93446.56
2017-12-26T16:20:46.677Z,93445.63
2017-12-26T16:23:14.665Z,93449.06
2017-12-26T16:25:42.525Z,93447.55
2017-12-26T16:28:10.333Z,93442.22
2017-12-26T16:30:38.086Z,93438.98
2017-12-26T16:33:05.912Z,93436.34
2017-12-26T16:35:33.712Z,93442.39
2017-12-26T16:38:01.609Z,93435.97
2017-12-26T16:40:29.333Z,93444.24
2017-12-26T16:42:57.251Z,93444.66
2017-12-26T16:45:25.077Z,93449.01
2017-12-26T16:47:53.195Z,93446.82
2017-12-26T16:50:21.306Z,93444.33
2017-12-26T16:52:49.388Z,93446.11
2017-12-26T16:55:17.285Z,93447.84
2017-12-26T16:57:45.072Z,93450.39
2017-12-26T17:00:12.892Z,93458.31
2017-12-26T17:02:40.781Z,93452.97
2017-12-26T17:05:08.562Z,93454.25
2017-12-26T17:07:36.388Z,93462.36
2017-12-26T17:10:04.252Z,93465.12
2017-12-26T17:12:32.685Z,93461.84
2017-12-26T17:15:01.941Z,93471.11
2017-12-26T17:17:29.987Z,93478.74
2017-12-26T17:19:57.800Z,93478.99
2017-12-26T17:22:25.696Z,93481.73
2017-12-26T17:24:53.585Z,93479.52
2017-12-26T17:27:21.468Z,93475.33
2017-12-26T17:29:49.915Z,93468.39
2017-12-26T17:32:17.831Z,93470.63
2017-12-26T17:34:45.867Z,93471.01
2017-12-26T17:37:13.799Z,93462.95
2017-12-26T17:39:41.779Z,93456.66
2017-12-26T17:42:09.542Z,93468.63
2017-12-26T17:44:37.717Z,93468.48
2017-12-26T17:47:05.625Z,93472.68
2017-12-26T17:49:34.656Z,93472.31
2017-12-26T17:52:03.200Z,93467.45
2017-12-26T17:54:31.201Z,93471.46
2017-12-26T17:56:59.132Z,93473.22
2017-12-26T17:59:27.037Z,93468.09
2017-12-26T18:01:54.795Z,93463.89
2017-12-26T18:04:22.715Z,93463.33
2017-12-26T18:06:50.585Z,93460.28
2017-12-26T18:09:18.395Z,93452.15
2017-12-26T18:11:46.158Z,93445.08
2017-12-26T18:14:13.914Z,93440.91
2017-12-26T18:16:41.680Z,93451.38
2017-12-26T18:19:09.605Z,93450.11
2017-12-26T18:21:37.525Z,93447.25
2017-12-26T18:24:05.456Z,93442.30
2017-12-26T18:26:33.288Z,93442.92
2017-12-26T18:29:01.097Z,93441.41
2017-12-26T18:31:28.891Z,93436.98
2017-12-26T18:33:56.641Z,93433.60
2017-12-26T18:36:24.596Z,93428.85
2017-12-26T18:38:52.378Z,93439.39
2017-12-26T18:41:20.529Z,93438.89
2017-12-26T18:43:48.333Z,93434.22
2017-12-26T18:46:16.118Z,93435.33
2017-12-26T18:48:44.936Z,93437.87
2017-12-26T18:51:12.974Z,93436.20
2017-12-26T18:53:40.809Z,93430.14
2017-12-26T18:56:10.084Z,93431.72
2017-12-26T18:58:37.873Z,93425.66
2017-12-26T19:01:05.859Z,93436.91
2017-12-26T19:03:34.800Z,93433.88
2017-12-26T19:06:02.556Z,93429.33
2017-12-26T19:08:30.399Z,93435.62
2017-12-26T19:10:58.246Z,93431.72
2017-12-26T19:13:26.124Z,93432.34
2017-12-26T19:15:53.996Z,93437.70
2017-12-26T19:18:21.922Z,93426.91
2017-12-26T19:20:49.956Z,93426.44
2017-12-26T19:23:17.911Z,93426.13
2017-12-26T19:25:47.647Z,93423.10
2017-12-26T19:28:16.235Z,93421.52
2017-12-26T19:30:45.058Z,93423.09
2017-12-26T19:33:13.122Z,93424.89
2017-12-26T19:35:40.925Z,93413.83
2017-12-26T19:38:09.875Z,93411.24
2017-12-26T19:40:37.626Z,93417.53
2017-12-26T19:43:05.551Z,93413.31
2017-12-26T19:45:33.737Z,93416.14
2017-12-26T19:48:01.582Z,93413.68
2017-12-26T19:50:29.556Z,93417.66
2017-12-26T19:52:57.902Z,93419.25
2017-12-26T19:55:26.097Z,93412.97
2017-12-26T19:57:53.988Z,93415.70
2017-12-26T20:00:23.071Z,93421.36
2017-12-26T20:02:51.023Z,93418.01
2017-12-26T20:05:19.089Z,93413.98
2017-12-26T20:07:48.187Z,93410.31
2017-12-26T20:10:16.536Z,93402.11
2017-12-26T20:12:44.490Z,93398.70
2017-12-26T20:15:12.405Z,93393.37
2017-12-26T20:17:43.450Z,93392.91
2017-12-26T20:20:11.283Z,93395.38
2017-12-26T20:22:41.027Z,93388.70
2017-12-26T20:25:09.415Z,93385.20
2017-12-26T20:27:37.674Z,93387.42
2017-12-26T20:30:06.393Z,93389.83
2017-12-26T20:32:34.239Z,93387.69
2017-12-26T20:35:02.214Z,93382.03
2017-12-26T20:37:30.055Z,93368.37
2017-12-26T20:39:59.058Z,93365.27
2017-12-26T20:42:26.906Z,93364.31
2017-12-26T20:44:54.679Z,93358.98
2017-12-26T20:47:22.455Z,93342.78
2017-12-26T20:49:50.185Z,93335.23
2017-12-26T20:52:18.014Z,93322.13
2017-12-26T20:54:46.340Z,93315.77
2017-12-26T20:57:14.680Z,93310.63
2017-12-26T20:59:42.587Z,93322.86
2017-12-26T21:02:10.390Z,93322.13
2017-12-26T21:04:38.152Z,93310.13
2017-12-26T21:07:05.968Z,93300.98
2017-12-26T21:09:34.613Z,93302.45
2017-12-26T21:12:02.425Z,93292.98
2017-12-26T21:14:30.203Z,93281.47
2017-12-26T21:16:58.228Z,93278.14
2017-12-26T21:19:26.021Z,93268.92
2017-12-26T21:21:53.854Z,93268.52
2017-12-26T21:24:21.679Z,93258.91
2017-12-26T21:26:49.791Z,93253.67
2017-12-26T21:29:17.645Z,93244.38
2017-12-26T21:31:45.443Z,93242.51
2017-12-26T21:34:13.235Z,93241.47
2017-12-26T21:36:41.087Z,93242.86
2017-12-26T21:39:08.941Z,93231.74
2017-12-26T21:41:38.806Z,93229.36
2017-12-26T21:44:06.592Z,93213.67
2017-12-26T21:46:34.699Z,93210.98
2017-12-26T21:49:02.613Z,93204.63
2017-12-26T21:51:30.460Z,93196.88
2017-12-26T21:53:58.171Z,93199.78
2017-12-26T21:56:25.963Z,93197.33
2017-12-26T21:58:53.721Z,93201.48
2017-12-26T22:01:22.117Z,93197.36
2017-12-26T22:03:49.848Z,93192.70
2017-12-26T22:06:18.974Z,93193.66
2017-12-26T22:08:47.298Z,93183.70
2017-12-26T22:11:15.157Z,93177.00
2017-12-26T22:13:42.929Z,93166.35
2017-12-26T22:16:10.696Z,93162.94
2017-12-26T22:18:38.461Z,93161.55
2017-12-26T22:21:06.812Z,93160.88
2017-12-26T22:23:34.574Z,93169.29
2017-12-26T22:26:02.475Z,93158.81
2017-12-26T22:28:30.449Z,93153.53
2017-12-26T22:30:58.538Z,93146.66
2017-12-26T22:33:26.402Z,93144.73
2017-12-26T22:35:54.910Z,93141.30
2017-12-26T22:38:22.637Z,93134.33
2017-12-26T22:40:50.424Z,93135.51
2017-12-26T22:43:18.147Z,93119.39
2017-12-26T22:45:45.889Z,93118.13
2017-12-26T22:48:13.745Z,93108.77
2017-12-26T22:50:41.534Z,93105.59
2017-12-26T22:53:09.763Z,93092.08
2017-12-26T22:55:37.568Z,93089.64
2017-12-26T22:58:05.323Z,93106.31
2017-12-26T23:00:33.252Z,93095.72
2017-12-26T23:03:01.161Z,93090.67
2017-12-26T23:05:29.041Z,93072.78
2017-12-26T23:07:57.765Z,93074.25
2017-12-26T23:10:25.661Z,93066.12
2017-12-26T23:12:53.569Z,93053.34
2017-12-26T23:15:27.069Z,93053.70
2017-12-26T23:18:00.493Z,93039.75
2017-12-26T23:20:33.862Z,93028.45
2017-12-26T23:23:07.260Z,93027.30
2017-12-26T23:25:40.618Z,93032.37
2017-12-26T23:28:13.982Z,93029.42
2017-12-26T23:30:47.188Z,93013.30
2017-12-26T23:33:20.545Z,93006.24
2017-12-26T23:38:58.184Z,92994.03
2017-12-26T23:41:31.504Z,92980.31
2017-12-26T23:44:04.915Z,92966.44
2017-12-26T23:46:38.956Z,92956.90
2017-12-26T23:49:12.824Z,92956.42
2017-12-26T23:51:46.304Z,92943.81
2017-12-26T23:54:19.659Z,92934.27
2017-12-26T23:56:53.090Z,92932.05
2017-12-26T23:59:26.353Z,92934.38
